Nearby METAR Reports

Meteorological Terminal Air Report (METAR)

K3I2 - Pt Pleasant, West Virginia, USA
Distance from station: S 11mi, 18km
Updated: Thu, 24-Sep-2020 12:35am EDT
Clear
Clear
 Wind from calm
Wind: Calm
Temperature: 57°F , 14°C
Dew Point: 57°F , 14°C
Humidity: 100%
Barometer: 30.07 inHg , 1018.3 hPa
Clouds: Clear
Visibility: 10 miles , 16 km
2020/09/24 04:35 K3I2 240435Z AUTO 00000KT 10SM CLR 14/14 A3007 RMK AO2 T01420142
KUNI - Athens, Ohio, USA
Distance from station: NW 13mi, 21km
Updated: Thu, 24-Sep-2020 12:35am EDT
Clear
Clear
 Wind from calm
Wind: Calm
Temperature: 57°F , 14°C
Dew Point: 57°F , 14°C
Humidity: 100%
Barometer: 30.05 inHg , 1017.6 hPa
Clouds: Clear
Visibility: 10 miles , 16 km
2020/09/24 04:35 KUNI 240435Z AUTO 00000KT 10SM CLR 14/14 A3005 RMK AO2 T01420142
 
KPKB - Parkersburg, West Virginia, USA
Distance from station: ENE 40mi, 65km
Updated: Wed, 23-Sep-2020 11:53pm EDT
Clear
Clear
 Wind from calm
Wind: Calm
Temperature: 57°F , 14°C
Dew Point: 55°F , 13°C
Humidity: 94%
Barometer: 30.06 inHg , 1017.9 hPa
Clouds: Clear
Visibility: 9 miles , 14 km
2020/09/24 03:53 KPKB 240353Z AUTO 00000KT 9SM CLR 14/13 A3006 RMK AO2 SLP176 T01390128
KCRW - Charleston, West Virginia, USA
Distance from station: SSE 55mi, 88km
Updated: Wed, 23-Sep-2020 11:54pm EDT
Mostly cloudy
Mostly cloudy
 Wind from calm
Wind: Calm
Temperature: 57°F , 14°C
Dew Point: 55°F , 13°C
Humidity: 94%
Barometer: 30.06 inHg , 1017.9 hPa
Clouds: Mostly cloudy
Visibility: 10 miles , 16 km
Cloud details: Few Clouds 100 ft
Mostly cloudy 21000 ft
2020/09/24 03:54 KCRW 240354Z 00000KT 10SM FEW001 BKN210 14/13 A3006 RMK AO2 SLP176 T01440133
 
KHTS - Huntington, West Virginia, USA
Distance from station: SSW 55mi, 89km
Updated: Wed, 23-Sep-2020 11:51pm EDT
Clear
Clear
 Wind from calm
Wind: Calm
Temperature: 61°F , 16°C
Dew Point: 57°F , 14°C
Humidity: 88%
Barometer: 30.06 inHg , 1017.9 hPa
Clouds: Clear
Visibility: 10 miles , 16 km
2020/09/24 03:51 KHTS 240351Z 00000KT 10SM CLR 16/14 A3006 RMK AO2 SLP173 T01560144
KLHQ - Lancaster, Ohio, USA
Distance from station: NW 56mi, 91km
Updated: Wed, 23-Sep-2020 11:53pm EDT
Clear
Clear
 Wind from ESE
Wind: ESE 3 mph , 6 km/h
Temperature: 57°F , 14°C
Dew Point: 55°F , 13°C
Humidity: 94%
Barometer: 30.05 inHg , 1017.6 hPa
Clouds: Clear
Visibility: 10 miles , 16 km
2020/09/24 03:53 KLHQ 240353Z AUTO 11003KT 10SM CLR 14/13 A3005 RMK AO2 SLP171 T01440128
 
KZZV - Zanesville, Ohio, USA
Distance from station: N 61mi, 99km
Updated: Wed, 23-Sep-2020 11:53pm EDT
Clear
Clear
 Wind from calm
Wind: Calm
Temperature: 61°F , 16°C
Dew Point: 57°F , 14°C
Humidity: 88%
Barometer: 30.04 inHg , 1017.3 hPa
Clouds: Clear
Visibility: 10 miles , 16 km
2020/09/24 03:53 KZZV 240353Z AUTO 00000KT 10SM CLR 16/14 A3004 RMK AO2 SLP169 T01560144
KLCK - Rickenbacker Ang, Ohio, USA
Distance from station: NW 68mi, 110km
Updated: Wed, 23-Sep-2020 11:55pm EDT
Clear
Clear
 Wind from SSE
Wind: SSE 5 mph , 7 km/h
Temperature: 59°F , 15°C
Dew Point: 55°F , 13°C
Humidity: 88%
Barometer: 30.03 inHg , 1016.9 hPa
Clouds: Clear
Visibility: 10 miles , 16 km
2020/09/24 03:55 KLCK 240355Z AUTO 16004KT 10SM CLR 15/13 A3003 RMK AO2 T01540133
 
KVTA - Newark, Ohio, USA
Distance from station: NNW 68mi, 110km
Updated: Wed, 23-Sep-2020 11:54pm EDT
Clear
Clear
 Wind from calm
Wind: Calm
Temperature: 57°F , 14°C
Dew Point: 55°F , 13°C
Humidity: 94%
Barometer: 30.04 inHg , 1017.3 hPa
Clouds: Clear
Visibility: 8 miles , 13 km
2020/09/24 03:54 KVTA 240354Z AUTO 00000KT 8SM CLR 14/13 A3004 RMK AO2 SLP168 T01440128